sensor_id;sensor_type;location;lat;lon;timestamp;P1;durP1;ratioP1;P2;durP2;ratioP2
13040;SDS011;6587;42.728;23.288;2023-12-14T00:00:32;69.97;;;37.53;;
13040;SDS011;6587;42.728;23.288;2023-12-14T00:03:00;62.10;;;33.83;;
13040;SDS011;6587;42.728;23.288;2023-12-14T00:05:27;68.50;;;36.10;;
13040;SDS011;6587;42.728;23.288;2023-12-14T00:07:54;60.03;;;31.80;;
13040;SDS011;6587;42.728;23.288;2023-12-14T00:10:21;77.87;;;39.13;;
13040;SDS011;6587;42.728;23.288;2023-12-14T00:12:48;57.90;;;32.27;;
13040;SDS011;6587;42.728;23.288;2023-12-14T00:15:16;51.67;;;29.47;;
13040;SDS011;6587;42.728;23.288;2023-12-14T00:17:43;96.50;;;46.23;;
13040;SDS011;6587;42.728;23.288;2023-12-14T00:20:11;98.10;;;46.83;;
13040;SDS011;6587;42.728;23.288;2023-12-14T00:22:39;59.90;;;33.33;;
13040;SDS011;6587;42.728;23.288;2023-12-14T00:25:06;90.20;;;46.07;;
13040;SDS011;6587;42.728;23.288;2023-12-14T00:27:33;77.70;;;42.33;;
13040;SDS011;6587;42.728;23.288;2023-12-14T00:30:00;62.97;;;33.53;;
13040;SDS011;6587;42.728;23.288;2023-12-14T00:32:27;81.63;;;39.00;;
13040;SDS011;6587;42.728;23.288;2023-12-14T00:34:54;78.87;;;42.57;;
13040;SDS011;6587;42.728;23.288;2023-12-14T00:37:23;48.63;;;26.17;;
13040;SDS011;6587;42.728;23.288;2023-12-14T00:39:50;43.27;;;24.33;;
13040;SDS011;6587;42.728;23.288;2023-12-14T00:42:17;32.37;;;18.53;;
13040;SDS011;6587;42.728;23.288;2023-12-14T00:44:44;49.27;;;29.10;;
13040;SDS011;6587;42.728;23.288;2023-12-14T00:47:11;62.30;;;31.30;;
13040;SDS011;6587;42.728;23.288;2023-12-14T00:49:38;60.57;;;32.10;;
13040;SDS011;6587;42.728;23.288;2023-12-14T00:52:05;49.37;;;27.37;;
13040;SDS011;6587;42.728;23.288;2023-12-14T00:54:33;51.60;;;29.77;;
13040;SDS011;6587;42.728;23.288;2023-12-14T00:57:00;35.17;;;19.40;;
13040;SDS011;6587;42.728;23.288;2023-12-14T00:59:28;34.10;;;18.83;;
13040;SDS011;6587;42.728;23.288;2023-12-14T05:54:58;80.73;;;43.17;;
13040;SDS011;6587;42.728;23.288;2023-12-14T05:57:25;118.77;;;58.80;;
13040;SDS011;6587;42.728;23.288;2023-12-14T05:59:52;115.43;;;56.47;;
13040;SDS011;6587;42.728;23.288;2023-12-14T06:02:19;79.23;;;41.07;;
13040;SDS011;6587;42.728;23.288;2023-12-14T06:04:45;117.90;;;57.20;;
13040;SDS011;6587;42.728;23.288;2023-12-14T06:07:13;138.20;;;68.40;;
13040;SDS011;6587;42.728;23.288;2023-12-14T06:09:40;129.70;;;61.50;;
13040;SDS011;6587;42.728;23.288;2023-12-14T06:12:09;84.60;;;43.87;;
13040;SDS011;6587;42.728;23.288;2023-12-14T06:14:36;42.83;;;25.73;;
13040;SDS011;6587;42.728;23.288;2023-12-14T06:17:03;91.13;;;47.80;;
13040;SDS011;6587;42.728;23.288;2023-12-14T06:19:29;101.47;;;50.60;;
13040;SDS011;6587;42.728;23.288;2023-12-14T06:21:57;89.70;;;47.80;;
13040;SDS011;6587;42.728;23.288;2023-12-14T06:24:24;128.23;;;64.27;;
13040;SDS011;6587;42.728;23.288;2023-12-14T06:26:51;50.83;;;27.40;;
13040;SDS011;6587;42.728;23.288;2023-12-14T06:29:19;65.07;;;35.53;;
13040;SDS011;6587;42.728;23.288;2023-12-14T06:31:46;82.27;;;43.87;;
13040;SDS011;6587;42.728;23.288;2023-12-14T06:34:13;76.73;;;41.13;;
13040;SDS011;6587;42.728;23.288;2023-12-14T06:36:41;67.10;;;39.57;;
13040;SDS011;6587;42.728;23.288;2023-12-14T06:39:09;68.37;;;38.13;;
13040;SDS011;6587;42.728;23.288;2023-12-14T06:41:36;65.37;;;38.03;;
13040;SDS011;6587;42.728;23.288;2023-12-14T06:44:04;74.00;;;41.80;;
13040;SDS011;6587;42.728;23.288;2023-12-14T06:46:32;64.07;;;37.40;;
13040;SDS011;6587;42.728;23.288;2023-12-14T06:48:59;69.03;;;38.60;;
13040;SDS011;6587;42.728;23.288;2023-12-14T06:51:26;72.03;;;40.77;;
13040;SDS011;6587;42.728;23.288;2023-12-14T06:53:53;62.63;;;35.93;;
13040;SDS011;6587;42.728;23.288;2023-12-14T06:56:19;72.03;;;40.60;;
13040;SDS011;6587;42.728;23.288;2023-12-14T06:58:46;73.00;;;41.13;;
13040;SDS011;6587;42.728;23.288;2023-12-14T07:01:15;62.67;;;36.07;;
13040;SDS011;6587;42.728;23.288;2023-12-14T07:03:44;82.87;;;45.13;;
13040;SDS011;6587;42.728;23.288;2023-12-14T07:06:12;78.83;;;44.70;;
13040;SDS011;6587;42.728;23.288;2023-12-14T07:08:39;63.37;;;37.90;;
13040;SDS011;6587;42.728;23.288;2023-12-14T07:11:07;76.13;;;42.77;;
13040;SDS011;6587;42.728;23.288;2023-12-14T07:16:19;72.43;;;40.23;;
13040;SDS011;6587;42.728;23.288;2023-12-14T07:18:48;79.30;;;44.80;;
13040;SDS011;6587;42.728;23.288;2023-12-14T07:21:14;74.07;;;41.30;;
13040;SDS011;6587;42.728;23.288;2023-12-14T07:23:42;69.63;;;39.60;;
13040;SDS011;6587;42.728;23.288;2023-12-14T07:26:08;71.93;;;40.17;;
13040;SDS011;6587;42.728;23.288;2023-12-14T07:28:35;82.83;;;44.83;;
13040;SDS011;6587;42.728;23.288;2023-12-14T07:31:02;71.00;;;40.43;;
13040;SDS011;6587;42.728;23.288;2023-12-14T07:33:29;82.10;;;48.23;;
13040;SDS011;6587;42.728;23.288;2023-12-14T07:35:57;81.03;;;43.90;;
13040;SDS011;6587;42.728;23.288;2023-12-14T07:38:24;62.57;;;39.53;;
13040;SDS011;6587;42.728;23.288;2023-12-14T07:40:51;68.83;;;40.27;;
13040;SDS011;6587;42.728;23.288;2023-12-14T07:43:18;82.97;;;46.97;;
13040;SDS011;6587;42.728;23.288;2023-12-14T07:45:45;95.83;;;44.43;;
13040;SDS011;6587;42.728;23.288;2023-12-14T07:48:12;78.00;;;39.17;;
13040;SDS011;6587;42.728;23.288;2023-12-14T07:50:39;117.47;;;54.73;;
13040;SDS011;6587;42.728;23.288;2023-12-14T07:53:07;235.90;;;97.13;;
13040;SDS011;6587;42.728;23.288;2023-12-14T07:55:34;199.27;;;95.47;;
13040;SDS011;6587;42.728;23.288;2023-12-14T07:58:01;176.40;;;82.03;;
13040;SDS011;6587;42.728;23.288;2023-12-14T08:00:28;178.63;;;79.00;;
13040;SDS011;6587;42.728;23.288;2023-12-14T08:02:54;169.63;;;79.20;;
13040;SDS011;6587;42.728;23.288;2023-12-14T08:05:21;97.80;;;48.20;;
13040;SDS011;6587;42.728;23.288;2023-12-14T08:07:48;77.03;;;37.77;;
13040;SDS011;6587;42.728;23.288;2023-12-14T08:10:18;186.97;;;79.00;;
13040;SDS011;6587;42.728;23.288;2023-12-14T08:12:45;161.30;;;72.33;;
13040;SDS011;6587;42.728;23.288;2023-12-14T08:15:13;187.80;;;86.53;;
13040;SDS011;6587;42.728;23.288;2023-12-14T08:17:41;154.60;;;70.63;;
13040;SDS011;6587;42.728;23.288;2023-12-14T08:20:08;111.27;;;54.87;;
13040;SDS011;6587;42.728;23.288;2023-12-14T08:22:38;88.07;;;44.10;;
13040;SDS011;6587;42.728;23.288;2023-12-14T08:25:10;126.37;;;61.47;;
13040;SDS011;6587;42.728;23.288;2023-12-14T08:27:40;108.17;;;54.07;;
13040;SDS011;6587;42.728;23.288;2023-12-14T08:30:07;86.87;;;45.30;;
13040;SDS011;6587;42.728;23.288;2023-12-14T08:32:35;68.43;;;34.93;;
13040;SDS011;6587;42.728;23.288;2023-12-14T08:35:01;52.07;;;32.30;;
13040;SDS011;6587;42.728;23.288;2023-12-14T08:37:28;70.63;;;37.27;;
13040;SDS011;6587;42.728;23.288;2023-12-14T08:39:55;69.17;;;36.07;;
13040;SDS011;6587;42.728;23.288;2023-12-14T08:42:22;59.10;;;31.40;;
13040;SDS011;6587;42.728;23.288;2023-12-14T08:44:50;49.70;;;27.37;;
13040;SDS011;6587;42.728;23.288;2023-12-14T08:47:17;42.83;;;24.83;;
13040;SDS011;6587;42.728;23.288;2023-12-14T08:49:44;42.73;;;26.00;;
13040;SDS011;6587;42.728;23.288;2023-12-14T08:52:11;42.40;;;24.83;;
13040;SDS011;6587;42.728;23.288;2023-12-14T08:54:39;38.53;;;22.60;;
13040;SDS011;6587;42.728;23.288;2023-12-14T08:57:08;36.63;;;23.10;;
13040;SDS011;6587;42.728;23.288;2023-12-14T08:59:35;37.43;;;23.33;;
13040;SDS011;6587;42.728;23.288;2023-12-14T09:02:03;41.27;;;23.37;;
13040;SDS011;6587;42.728;23.288;2023-12-14T09:04:30;38.10;;;21.37;;
13040;SDS011;6587;42.728;23.288;2023-12-14T09:06:57;39.10;;;22.57;;
13040;SDS011;6587;42.728;23.288;2023-12-14T09:09:24;34.00;;;20.73;;
13040;SDS011;6587;42.728;23.288;2023-12-14T09:11:51;32.33;;;19.83;;
13040;SDS011;6587;42.728;23.288;2023-12-14T09:14:18;51.73;;;29.33;;
13040;SDS011;6587;42.728;23.288;2023-12-14T09:16:45;51.93;;;31.40;;
13040;SDS011;6587;42.728;23.288;2023-12-14T09:19:14;51.03;;;29.33;;
13040;SDS011;6587;42.728;23.288;2023-12-14T09:21:40;57.93;;;30.00;;
13040;SDS011;6587;42.728;23.288;2023-12-14T09:24:08;56.93;;;31.87;;
13040;SDS011;6587;42.728;23.288;2023-12-14T09:26:35;56.27;;;33.50;;
13040;SDS011;6587;42.728;23.288;2023-12-14T09:29:02;52.67;;;31.63;;
13040;SDS011;6587;42.728;23.288;2023-12-14T09:31:29;59.00;;;34.33;;
13040;SDS011;6587;42.728;23.288;2023-12-14T09:33:55;72.30;;;35.70;;
13040;SDS011;6587;42.728;23.288;2023-12-14T09:36:24;60.03;;;37.53;;
13040;SDS011;6587;42.728;23.288;2023-12-14T09:38:50;55.47;;;32.37;;
13040;SDS011;6587;42.728;23.288;2023-12-14T09:41:17;58.07;;;36.27;;
13040;SDS011;6587;42.728;23.288;2023-12-14T09:43:44;59.30;;;34.00;;
13040;SDS011;6587;42.728;23.288;2023-12-14T09:46:12;62.30;;;34.57;;
13040;SDS011;6587;42.728;23.288;2023-12-14T09:48:39;57.23;;;33.60;;
13040;SDS011;6587;42.728;23.288;2023-12-14T09:51:06;60.00;;;31.70;;
13040;SDS011;6587;42.728;23.288;2023-12-14T09:53:35;55.93;;;33.17;;
13040;SDS011;6587;42.728;23.288;2023-12-14T09:56:02;58.07;;;32.90;;
13040;SDS011;6587;42.728;23.288;2023-12-14T09:58:31;54.47;;;31.80;;
13040;SDS011;6587;42.728;23.288;2023-12-14T10:00:58;48.37;;;28.53;;
13040;SDS011;6587;42.728;23.288;2023-12-14T10:03:26;49.20;;;29.37;;
13040;SDS011;6587;42.728;23.288;2023-12-14T10:05:54;51.00;;;29.40;;
13040;SDS011;6587;42.728;23.288;2023-12-14T10:08:22;49.67;;;28.80;;
13040;SDS011;6587;42.728;23.288;2023-12-14T10:10:52;53.00;;;28.13;;
13040;SDS011;6587;42.728;23.288;2023-12-14T10:13:21;45.53;;;28.57;;
13040;SDS011;6587;42.728;23.288;2023-12-14T10:15:50;51.27;;;29.60;;
13040;SDS011;6587;42.728;23.288;2023-12-14T10:18:23;48.33;;;28.27;;
13040;SDS011;6587;42.728;23.288;2023-12-14T10:20:51;50.20;;;28.97;;
13040;SDS011;6587;42.728;23.288;2023-12-14T10:23:18;51.63;;;29.87;;
13040;SDS011;6587;42.728;23.288;2023-12-14T10:25:46;47.47;;;27.93;;
13040;SDS011;6587;42.728;23.288;2023-12-14T10:28:14;47.03;;;25.80;;
13040;SDS011;6587;42.728;23.288;2023-12-14T10:30:41;46.73;;;27.57;;
13040;SDS011;6587;42.728;23.288;2023-12-14T10:33:08;31.77;;;21.23;;
13040;SDS011;6587;42.728;23.288;2023-12-14T10:35:38;33.37;;;18.70;;
13040;SDS011;6587;42.728;23.288;2023-12-14T10:38:07;21.20;;;14.63;;
13040;SDS011;6587;42.728;23.288;2023-12-14T10:40:36;22.13;;;11.47;;
13040;SDS011;6587;42.728;23.288;2023-12-14T10:43:06;24.93;;;11.37;;
13040;SDS011;6587;42.728;23.288;2023-12-14T10:45:34;17.53;;;10.57;;
13040;SDS011;6587;42.728;23.288;2023-12-14T10:48:02;17.10;;;11.17;;
13040;SDS011;6587;42.728;23.288;2023-12-14T10:50:31;14.93;;;9.40;;
13040;SDS011;6587;42.728;23.288;2023-12-14T10:52:58;15.60;;;8.50;;
13040;SDS011;6587;42.728;23.288;2023-12-14T10:55:27;15.20;;;7.30;;
13040;SDS011;6587;42.728;23.288;2023-12-14T10:58:03;9.70;;;5.70;;
13040;SDS011;6587;42.728;23.288;2023-12-14T11:00:30;9.67;;;5.63;;
13040;SDS011;6587;42.728;23.288;2023-12-14T11:02:59;6.73;;;4.97;;
13040;SDS011;6587;42.728;23.288;2023-12-14T11:05:26;4.50;;;3.37;;
13040;SDS011;6587;42.728;23.288;2023-12-14T11:07:55;4.57;;;3.10;;
13040;SDS011;6587;42.728;23.288;2023-12-14T11:10:36;4.93;;;3.43;;
13040;SDS011;6587;42.728;23.288;2023-12-14T11:13:05;4.47;;;3.23;;
13040;SDS011;6587;42.728;23.288;2023-12-14T11:15:35;4.37;;;2.77;;
13040;SDS011;6587;42.728;23.288;2023-12-14T11:18:26;4.87;;;2.60;;
13040;SDS011;6587;42.728;23.288;2023-12-14T11:20:54;3.80;;;2.60;;
13040;SDS011;6587;42.728;23.288;2023-12-14T11:23:27;2.60;;;2.30;;
13040;SDS011;6587;42.728;23.288;2023-12-14T11:25:58;3.20;;;2.20;;
13040;SDS011;6587;42.728;23.288;2023-12-14T11:28:28;4.67;;;2.00;;
13040;SDS011;6587;42.728;23.288;2023-12-14T11:30:56;3.97;;;2.40;;
13040;SDS011;6587;42.728;23.288;2023-12-14T11:33:23;3.77;;;2.20;;
13040;SDS011;6587;42.728;23.288;2023-12-14T11:35:51;3.17;;;1.87;;
13040;SDS011;6587;42.728;23.288;2023-12-14T11:38:18;2.73;;;1.53;;
13040;SDS011;6587;42.728;23.288;2023-12-14T11:40:46;1.97;;;1.80;;
13040;SDS011;6587;42.728;23.288;2023-12-14T11:43:14;2.57;;;1.80;;
13040;SDS011;6587;42.728;23.288;2023-12-14T11:45:41;3.10;;;1.60;;
13040;SDS011;6587;42.728;23.288;2023-12-14T11:48:09;1.80;;;1.50;;
13040;SDS011;6587;42.728;23.288;2023-12-14T11:50:37;2.23;;;1.20;;
13040;SDS011;6587;42.728;23.288;2023-12-14T11:53:07;1.80;;;1.27;;
13040;SDS011;6587;42.728;23.288;2023-12-14T11:55:35;1.17;;;1.07;;
13040;SDS011;6587;42.728;23.288;2023-12-14T11:58:03;1.43;;;1.30;;
13040;SDS011;6587;42.728;23.288;2023-12-14T12:00:31;1.30;;;1.20;;
13040;SDS011;6587;42.728;23.288;2023-12-14T12:03:11;5.23;;;1.23;;
13040;SDS011;6587;42.728;23.288;2023-12-14T12:05:41;2.03;;;1.30;;
13040;SDS011;6587;42.728;23.288;2023-12-14T12:08:10;1.20;;;1.10;;
13040;SDS011;6587;42.728;23.288;2023-12-14T12:10:38;1.97;;;1.20;;
13040;SDS011;6587;42.728;23.288;2023-12-14T12:13:06;2.33;;;1.80;;
13040;SDS011;6587;42.728;23.288;2023-12-14T12:15:34;2.50;;;1.73;;
13040;SDS011;6587;42.728;23.288;2023-12-14T12:18:03;2.93;;;1.53;;
13040;SDS011;6587;42.728;23.288;2023-12-14T12:20:31;2.50;;;1.90;;
13040;SDS011;6587;42.728;23.288;2023-12-14T12:22:58;4.57;;;1.60;;
13040;SDS011;6587;42.728;23.288;2023-12-14T12:25:26;1.60;;;1.40;;
13040;SDS011;6587;42.728;23.288;2023-12-14T12:27:54;2.50;;;1.70;;
13040;SDS011;6587;42.728;23.288;2023-12-14T12:30:21;2.73;;;1.10;;
13040;SDS011;6587;42.728;23.288;2023-12-14T12:32:48;1.30;;;1.20;;
13040;SDS011;6587;42.728;23.288;2023-12-14T12:35:16;3.30;;;1.20;;
13040;SDS011;6587;42.728;23.288;2023-12-14T12:37:43;1.40;;;1.30;;
13040;SDS011;6587;42.728;23.288;2023-12-14T12:40:11;1.00;;;1.00;;
13040;SDS011;6587;42.728;23.288;2023-12-14T12:42:39;2.03;;;1.60;;
13040;SDS011;6587;42.728;23.288;2023-12-14T12:45:06;1.10;;;1.00;;
13040;SDS011;6587;42.728;23.288;2023-12-14T12:47:33;1.70;;;1.40;;
13040;SDS011;6587;42.728;23.288;2023-12-14T12:50:01;1.97;;;1.40;;
13040;SDS011;6587;42.728;23.288;2023-12-14T12:52:28;3.60;;;1.30;;
13040;SDS011;6587;42.728;23.288;2023-12-14T12:54:54;1.47;;;1.17;;
13040;SDS011;6587;42.728;23.288;2023-12-14T12:57:21;1.13;;;1.03;;
13040;SDS011;6587;42.728;23.288;2023-12-14T12:59:49;1.27;;;1.10;;
13040;SDS011;6587;42.728;23.288;2023-12-14T13:02:16;1.30;;;1.20;;
13040;SDS011;6587;42.728;23.288;2023-12-14T13:04:43;2.43;;;1.20;;
13040;SDS011;6587;42.728;23.288;2023-12-14T13:07:11;2.23;;;1.43;;
13040;SDS011;6587;42.728;23.288;2023-12-14T13:09:38;4.00;;;1.30;;
13040;SDS011;6587;42.728;23.288;2023-12-14T13:12:05;2.30;;;1.30;;
13040;SDS011;6587;42.728;23.288;2023-12-14T13:14:33;3.23;;;1.70;;
13040;SDS011;6587;42.728;23.288;2023-12-14T13:17:02;3.07;;;1.37;;
13040;SDS011;6587;42.728;23.288;2023-12-14T13:19:29;1.10;;;1.10;;
13040;SDS011;6587;42.728;23.288;2023-12-14T13:21:56;1.27;;;1.17;;
13040;SDS011;6587;42.728;23.288;2023-12-14T13:24:24;1.50;;;1.10;;
13040;SDS011;6587;42.728;23.288;2023-12-14T13:26:51;1.73;;;1.13;;
13040;SDS011;6587;42.728;23.288;2023-12-14T13:29:18;1.63;;;1.10;;
13040;SDS011;6587;42.728;23.288;2023-12-14T13:31:45;1.10;;;1.00;;
13040;SDS011;6587;42.728;23.288;2023-12-14T13:34:14;1.17;;;0.90;;
13040;SDS011;6587;42.728;23.288;2023-12-14T13:36:41;1.63;;;1.10;;
13040;SDS011;6587;42.728;23.288;2023-12-14T13:39:08;1.50;;;1.40;;
13040;SDS011;6587;42.728;23.288;2023-12-14T13:41:35;1.00;;;0.90;;
13040;SDS011;6587;42.728;23.288;2023-12-14T13:44:01;1.23;;;0.90;;
13040;SDS011;6587;42.728;23.288;2023-12-14T13:46:29;0.93;;;0.93;;
13040;SDS011;6587;42.728;23.288;2023-12-14T13:48:55;2.53;;;1.50;;
13040;SDS011;6587;42.728;23.288;2023-12-14T13:51:24;4.57;;;1.17;;
13040;SDS011;6587;42.728;23.288;2023-12-14T13:53:50;3.67;;;1.40;;
13040;SDS011;6587;42.728;23.288;2023-12-14T13:56:17;5.73;;;2.40;;
13040;SDS011;6587;42.728;23.288;2023-12-14T13:58:44;4.23;;;2.83;;
13040;SDS011;6587;42.728;23.288;2023-12-14T14:01:11;6.17;;;3.27;;
13040;SDS011;6587;42.728;23.288;2023-12-14T14:03:38;8.60;;;4.27;;
13040;SDS011;6587;42.728;23.288;2023-12-14T14:06:07;5.07;;;2.93;;
13040;SDS011;6587;42.728;23.288;2023-12-14T14:08:36;6.03;;;3.63;;
13040;SDS011;6587;42.728;23.288;2023-12-14T14:11:03;5.43;;;2.60;;
13040;SDS011;6587;42.728;23.288;2023-12-14T14:13:30;3.43;;;2.10;;
13040;SDS011;6587;42.728;23.288;2023-12-14T14:15:58;3.50;;;2.17;;
13040;SDS011;6587;42.728;23.288;2023-12-14T14:18:25;4.93;;;2.07;;
13040;SDS011;6587;42.728;23.288;2023-12-14T14:20:52;2.73;;;2.20;;
13040;SDS011;6587;42.728;23.288;2023-12-14T14:23:18;3.83;;;2.87;;
13040;SDS011;6587;42.728;23.288;2023-12-14T14:25:47;2.40;;;2.20;;
13040;SDS011;6587;42.728;23.288;2023-12-14T14:28:19;3.17;;;2.17;;
13040;SDS011;6587;42.728;23.288;2023-12-14T14:30:46;2.20;;;2.00;;
13040;SDS011;6587;42.728;23.288;2023-12-14T14:33:14;2.57;;;2.13;;
13040;SDS011;6587;42.728;23.288;2023-12-14T14:35:43;5.03;;;1.90;;
13040;SDS011;6587;42.728;23.288;2023-12-14T14:38:10;5.47;;;2.70;;
13040;SDS011;6587;42.728;23.288;2023-12-14T14:40:37;3.63;;;2.17;;
13040;SDS011;6587;42.728;23.288;2023-12-14T14:43:05;2.33;;;1.60;;
13040;SDS011;6587;42.728;23.288;2023-12-14T14:45:32;2.17;;;1.57;;
13040;SDS011;6587;42.728;23.288;2023-12-14T14:47:59;5.60;;;4.00;;
13040;SDS011;6587;42.728;23.288;2023-12-14T14:50:26;4.93;;;2.37;;
13040;SDS011;6587;42.728;23.288;2023-12-14T14:52:53;3.57;;;2.33;;
13040;SDS011;6587;42.728;23.288;2023-12-14T14:55:20;12.60;;;5.07;;
13040;SDS011;6587;42.728;23.288;2023-12-14T14:57:47;8.07;;;4.17;;
13040;SDS011;6587;42.728;23.288;2023-12-14T15:00:15;2.30;;;1.47;;
13040;SDS011;6587;42.728;23.288;2023-12-14T15:02:42;3.53;;;1.27;;
13040;SDS011;6587;42.728;23.288;2023-12-14T15:05:10;4.37;;;2.53;;
13040;SDS011;6587;42.728;23.288;2023-12-14T15:07:37;2.90;;;2.53;;
13040;SDS011;6587;42.728;23.288;2023-12-14T15:10:04;2.83;;;1.70;;
13040;SDS011;6587;42.728;23.288;2023-12-14T15:12:31;2.50;;;1.33;;
13040;SDS011;6587;42.728;23.288;2023-12-14T15:14:58;3.73;;;2.70;;
13040;SDS011;6587;42.728;23.288;2023-12-14T15:17:26;5.80;;;3.30;;
13040;SDS011;6587;42.728;23.288;2023-12-14T15:19:53;2.43;;;1.73;;
13040;SDS011;6587;42.728;23.288;2023-12-14T15:22:20;6.83;;;3.57;;
13040;SDS011;6587;42.728;23.288;2023-12-14T15:24:47;1.70;;;1.50;;
13040;SDS011;6587;42.728;23.288;2023-12-14T15:27:14;3.40;;;2.53;;
13040;SDS011;6587;42.728;23.288;2023-12-14T15:29:41;3.40;;;2.30;;
13040;SDS011;6587;42.728;23.288;2023-12-14T15:32:08;3.87;;;2.60;;
13040;SDS011;6587;42.728;23.288;2023-12-14T15:34:38;3.13;;;2.27;;
13040;SDS011;6587;42.728;23.288;2023-12-14T15:37:05;2.37;;;1.40;;
13040;SDS011;6587;42.728;23.288;2023-12-14T15:39:32;1.30;;;1.13;;
13040;SDS011;6587;42.728;23.288;2023-12-14T15:41:59;3.60;;;2.23;;
13040;SDS011;6587;42.728;23.288;2023-12-14T15:44:25;1.73;;;1.40;;
13040;SDS011;6587;42.728;23.288;2023-12-14T15:46:52;1.90;;;1.40;;
13040;SDS011;6587;42.728;23.288;2023-12-14T15:49:19;0.80;;;0.80;;
13040;SDS011;6587;42.728;23.288;2023-12-14T15:51:47;0.97;;;0.90;;
13040;SDS011;6587;42.728;23.288;2023-12-14T15:54:14;1.27;;;1.17;;
13040;SDS011;6587;42.728;23.288;2023-12-14T15:56:41;2.23;;;1.63;;
13040;SDS011;6587;42.728;23.288;2023-12-14T15:59:08;3.10;;;2.00;;
13040;SDS011;6587;42.728;23.288;2023-12-14T16:01:35;4.10;;;2.80;;
13040;SDS011;6587;42.728;23.288;2023-12-14T16:04:03;1.13;;;1.03;;
13040;SDS011;6587;42.728;23.288;2023-12-14T16:06:30;1.50;;;1.40;;
13040;SDS011;6587;42.728;23.288;2023-12-14T16:08:58;4.27;;;1.97;;
13040;SDS011;6587;42.728;23.288;2023-12-14T16:11:26;1.83;;;1.43;;
13040;SDS011;6587;42.728;23.288;2023-12-14T16:13:53;1.57;;;1.30;;
13040;SDS011;6587;42.728;23.288;2023-12-14T16:16:22;1.30;;;1.20;;
13040;SDS011;6587;42.728;23.288;2023-12-14T16:18:49;1.57;;;1.43;;
13040;SDS011;6587;42.728;23.288;2023-12-14T16:21:16;1.47;;;1.37;;
13040;SDS011;6587;42.728;23.288;2023-12-14T16:23:43;2.07;;;1.50;;
13040;SDS011;6587;42.728;23.288;2023-12-14T16:26:12;18.73;;;15.13;;
13040;SDS011;6587;42.728;23.288;2023-12-14T16:28:38;15.03;;;11.67;;
13040;SDS011;6587;42.728;23.288;2023-12-14T16:31:06;13.50;;;10.43;;
13040;SDS011;6587;42.728;23.288;2023-12-14T16:33:33;15.20;;;11.37;;
13040;SDS011;6587;42.728;23.288;2023-12-14T16:36:09;17.60;;;13.03;;
13040;SDS011;6587;42.728;23.288;2023-12-14T16:38:37;15.40;;;9.40;;
13040;SDS011;6587;42.728;23.288;2023-12-14T16:41:04;9.23;;;5.13;;
13040;SDS011;6587;42.728;23.288;2023-12-14T16:43:32;4.90;;;2.90;;
13040;SDS011;6587;42.728;23.288;2023-12-14T16:45:59;2.60;;;2.17;;
13040;SDS011;6587;42.728;23.288;2023-12-14T16:48:26;4.33;;;2.73;;
13040;SDS011;6587;42.728;23.288;2023-12-14T16:50:53;3.37;;;2.40;;
13040;SDS011;6587;42.728;23.288;2023-12-14T16:53:20;4.10;;;2.40;;
13040;SDS011;6587;42.728;23.288;2023-12-14T16:55:47;2.97;;;2.23;;
13040;SDS011;6587;42.728;23.288;2023-12-14T16:58:15;2.63;;;1.93;;
13040;SDS011;6587;42.728;23.288;2023-12-14T17:00:44;3.43;;;1.47;;
13040;SDS011;6587;42.728;23.288;2023-12-14T17:03:12;3.67;;;2.00;;
13040;SDS011;6587;42.728;23.288;2023-12-14T17:05:38;2.10;;;1.90;;
13040;SDS011;6587;42.728;23.288;2023-12-14T17:08:05;1.47;;;1.33;;
13040;SDS011;6587;42.728;23.288;2023-12-14T17:10:32;1.77;;;1.50;;
13040;SDS011;6587;42.728;23.288;2023-12-14T17:12:59;3.43;;;2.10;;
13040;SDS011;6587;42.728;23.288;2023-12-14T17:15:26;2.73;;;2.20;;
13040;SDS011;6587;42.728;23.288;2023-12-14T17:17:54;2.93;;;2.03;;
13040;SDS011;6587;42.728;23.288;2023-12-14T17:20:21;2.83;;;1.90;;
13040;SDS011;6587;42.728;23.288;2023-12-14T17:22:48;2.20;;;1.53;;
13040;SDS011;6587;42.728;23.288;2023-12-14T17:25:15;4.80;;;3.57;;
13040;SDS011;6587;42.728;23.288;2023-12-14T17:27:42;3.00;;;2.50;;
13040;SDS011;6587;42.728;23.288;2023-12-14T17:30:09;3.00;;;1.70;;
13040;SDS011;6587;42.728;23.288;2023-12-14T17:32:36;3.00;;;1.90;;
13040;SDS011;6587;42.728;23.288;2023-12-14T17:35:04;3.87;;;2.57;;
13040;SDS011;6587;42.728;23.288;2023-12-14T17:37:31;2.37;;;1.83;;
13040;SDS011;6587;42.728;23.288;2023-12-14T17:39:58;3.07;;;2.20;;
13040;SDS011;6587;42.728;23.288;2023-12-14T17:42:25;2.73;;;1.83;;
13040;SDS011;6587;42.728;23.288;2023-12-14T17:44:52;2.70;;;2.00;;
13040;SDS011;6587;42.728;23.288;2023-12-14T17:47:19;6.23;;;2.70;;
13040;SDS011;6587;42.728;23.288;2023-12-14T17:49:45;3.67;;;2.40;;
13040;SDS011;6587;42.728;23.288;2023-12-14T17:52:13;3.87;;;2.70;;
13040;SDS011;6587;42.728;23.288;2023-12-14T17:54:40;3.73;;;2.77;;
13040;SDS011;6587;42.728;23.288;2023-12-14T17:57:07;5.50;;;2.73;;
13040;SDS011;6587;42.728;23.288;2023-12-14T17:59:34;4.70;;;2.77;;
13040;SDS011;6587;42.728;23.288;2023-12-14T18:02:01;2.53;;;2.33;;
13040;SDS011;6587;42.728;23.288;2023-12-14T18:04:28;4.77;;;2.67;;
13040;SDS011;6587;42.728;23.288;2023-12-14T18:06:55;5.03;;;2.60;;
13040;SDS011;6587;42.728;23.288;2023-12-14T18:09:23;7.73;;;3.00;;
13040;SDS011;6587;42.728;23.288;2023-12-14T18:11:50;3.10;;;2.80;;
13040;SDS011;6587;42.728;23.288;2023-12-14T18:14:17;4.37;;;3.10;;
13040;SDS011;6587;42.728;23.288;2023-12-14T18:16:44;5.60;;;3.07;;
13040;SDS011;6587;42.728;23.288;2023-12-14T18:19:11;3.63;;;2.57;;
13040;SDS011;6587;42.728;23.288;2023-12-14T18:21:38;4.67;;;3.20;;
13040;SDS011;6587;42.728;23.288;2023-12-14T18:24:05;4.03;;;2.63;;
13040;SDS011;6587;42.728;23.288;2023-12-14T18:26:33;6.37;;;3.93;;
13040;SDS011;6587;42.728;23.288;2023-12-14T18:29:00;9.73;;;6.10;;
13040;SDS011;6587;42.728;23.288;2023-12-14T18:31:27;8.20;;;6.17;;
13040;SDS011;6587;42.728;23.288;2023-12-14T18:33:58;10.03;;;6.10;;
13040;SDS011;6587;42.728;23.288;2023-12-14T18:36:25;8.13;;;6.10;;
13040;SDS011;6587;42.728;23.288;2023-12-14T18:38:52;7.83;;;5.47;;
13040;SDS011;6587;42.728;23.288;2023-12-14T18:41:19;5.57;;;3.50;;
13040;SDS011;6587;42.728;23.288;2023-12-14T18:43:47;6.40;;;4.20;;
13040;SDS011;6587;42.728;23.288;2023-12-14T18:46:14;5.97;;;3.00;;
13040;SDS011;6587;42.728;23.288;2023-12-14T18:48:41;6.17;;;3.43;;
13040;SDS011;6587;42.728;23.288;2023-12-14T18:51:08;6.37;;;4.00;;
13040;SDS011;6587;42.728;23.288;2023-12-14T18:53:34;6.00;;;4.10;;
13040;SDS011;6587;42.728;23.288;2023-12-14T18:56:01;6.57;;;4.13;;
13040;SDS011;6587;42.728;23.288;2023-12-14T18:58:28;8.77;;;5.30;;
13040;SDS011;6587;42.728;23.288;2023-12-14T19:00:56;7.80;;;5.13;;
13040;SDS011;6587;42.728;23.288;2023-12-14T19:03:27;6.43;;;4.47;;
13040;SDS011;6587;42.728;23.288;2023-12-14T19:05:54;5.27;;;3.60;;
13040;SDS011;6587;42.728;23.288;2023-12-14T19:08:21;6.17;;;3.40;;
13040;SDS011;6587;42.728;23.288;2023-12-14T19:10:48;4.73;;;3.67;;
13040;SDS011;6587;42.728;23.288;2023-12-14T19:13:14;8.10;;;3.90;;
13040;SDS011;6587;42.728;23.288;2023-12-14T19:15:41;4.67;;;3.90;;
13040;SDS011;6587;42.728;23.288;2023-12-14T19:18:09;5.17;;;4.10;;
13040;SDS011;6587;42.728;23.288;2023-12-14T19:20:36;5.80;;;4.00;;
13040;SDS011;6587;42.728;23.288;2023-12-14T19:23:03;6.90;;;4.43;;
13040;SDS011;6587;42.728;23.288;2023-12-14T19:25:30;9.20;;;5.77;;
13040;SDS011;6587;42.728;23.288;2023-12-14T19:27:57;4.03;;;3.50;;
13040;SDS011;6587;42.728;23.288;2023-12-14T19:30:24;3.30;;;3.00;;
13040;SDS011;6587;42.728;23.288;2023-12-14T19:32:51;6.13;;;3.90;;